createdAt,value
2019-01-24T00:01:47.318Z,52.57
2019-01-24T00:04:17.416Z,50.30
2019-01-24T00:06:47.948Z,47.27
2019-01-24T00:09:18.164Z,47.90
2019-01-24T00:11:48.616Z,49.53
2019-01-24T00:14:18.694Z,47.07
2019-01-24T00:16:49.408Z,48.20
2019-01-24T00:19:19.453Z,46.97
2019-01-24T00:21:49.950Z,49.33
2019-01-24T00:24:20.064Z,47.80
2019-01-24T00:26:50.525Z,45.70
2019-01-24T00:29:20.596Z,48.93
2019-01-24T00:31:51.469Z,52.93
2019-01-24T00:34:23.409Z,48.27
2019-01-24T00:36:53.855Z,49.20
2019-01-24T00:39:24.017Z,46.03
2019-01-24T00:41:54.515Z,43.50
2019-01-24T00:44:24.722Z,46.00
2019-01-24T00:46:55.223Z,46.63
2019-01-24T00:49:25.395Z,45.37
2019-01-24T00:51:59.169Z,45.60
2019-01-24T00:54:29.527Z,43.07
2019-01-24T00:57:00.657Z,45.97
2019-01-24T00:59:30.875Z,45.40
2019-01-24T01:02:01.509Z,38.87
2019-01-24T01:04:31.667Z,45.10
2019-01-24T01:07:01.774Z,43.90
2019-01-24T01:09:31.881Z,40.60
2019-01-24T01:12:02.153Z,44.07
2019-01-24T01:14:32.417Z,44.13
2019-01-24T01:17:02.527Z,43.13
2019-01-24T01:19:32.753Z,46.27
2019-01-24T01:22:03.200Z,47.70
2019-01-24T01:24:33.649Z,42.20
2019-01-24T01:27:04.033Z,45.67
2019-01-24T01:29:35.796Z,45.87
2019-01-24T01:32:05.939Z,45.83
2019-01-24T01:34:36.426Z,48.87
2019-01-24T01:37:06.779Z,46.33
2019-01-24T01:39:36.877Z,46.10
2019-01-24T01:42:07.721Z,46.17
2019-01-24T01:44:37.851Z,44.73
2019-01-24T01:47:08.057Z,48.33
2019-01-24T01:49:38.412Z,50.80
2019-01-24T01:52:08.716Z,47.53
2019-01-24T01:54:40.168Z,48.63
2019-01-24T01:57:10.645Z,44.40
2019-01-24T01:59:40.749Z,43.97
2019-01-24T02:02:11.757Z,46.63
2019-01-24T02:04:43.040Z,47.83
2019-01-24T02:07:13.748Z,50.10
2019-01-24T02:09:43.952Z,47.67
2019-01-24T02:12:16.004Z,44.73
2019-01-24T02:14:46.144Z,50.97
2019-01-24T02:17:16.259Z,48.57
2019-01-24T02:19:46.391Z,49.60
2019-01-24T02:22:19.793Z,50.07
2019-01-24T02:24:49.882Z,53.23
2019-01-24T02:27:20.637Z,58.73
2019-01-24T02:29:50.779Z,52.97
2019-01-24T02:32:21.395Z,45.40
2019-01-24T02:34:51.581Z,48.47
2019-01-24T02:37:21.738Z,52.43
2019-01-24T02:39:51.865Z,45.57
2019-01-24T02:42:22.054Z,51.83
2019-01-24T02:44:53.988Z,53.20
2019-01-24T02:47:24.128Z,49.80
2019-01-24T02:49:54.131Z,57.03
2019-01-24T02:52:24.226Z,52.97
2019-01-24T02:54:54.611Z,51.47
2019-01-24T02:57:25.136Z,50.00
2019-01-24T02:59:55.687Z,47.93
2019-01-24T03:02:25.734Z,54.50
2019-01-24T03:04:57.016Z,52.33
2019-01-24T03:07:27.284Z,51.43
2019-01-24T03:09:57.428Z,50.80
2019-01-24T03:12:27.508Z,47.53
2019-01-24T03:14:58.183Z,55.87
2019-01-24T03:17:28.896Z,53.73
2019-01-24T03:19:59.299Z,54.43
2019-01-24T03:22:29.409Z,52.67
2019-01-24T03:25:00.226Z,54.43
2019-01-24T03:27:30.379Z,48.97
2019-01-24T03:30:02.089Z,53.30
2019-01-24T03:32:32.721Z,57.60
2019-01-24T03:35:04.319Z,50.27
2019-01-24T03:37:35.060Z,52.73
2019-01-24T03:40:09.999Z,49.93
2019-01-24T03:42:40.050Z,53.23
2019-01-24T03:45:15.123Z,53.60
2019-01-24T03:47:45.375Z,54.00
2019-01-24T03:50:20.442Z,50.20
2019-01-24T03:52:51.743Z,58.33
2019-01-24T03:55:22.577Z,53.30
2019-01-24T03:57:53.219Z,53.17
2019-01-24T04:00:25.143Z,53.13
2019-01-24T04:02:56.264Z,50.67
2019-01-24T04:05:26.415Z,52.77
2019-01-24T04:07:56.794Z,50.83
2019-01-24T04:10:26.932Z,53.30
2019-01-24T04:12:57.919Z,54.40
2019-01-24T04:15:30.677Z,54.63
2019-01-24T04:18:01.108Z,49.93
2019-01-24T04:20:31.254Z,55.67
2019-01-24T04:23:02.067Z,49.60
2019-01-24T04:25:32.144Z,57.43
2019-01-24T04:28:02.285Z,54.97
2019-01-24T04:30:32.475Z,56.03
2019-01-24T04:33:02.896Z,53.80
2019-01-24T04:35:34.637Z,50.80
2019-01-24T04:38:04.880Z,51.00
2019-01-24T04:40:34.948Z,64.57
2019-01-24T04:43:07.676Z,55.27
2019-01-24T04:45:37.775Z,57.40
2019-01-24T04:48:09.014Z,57.87
2019-01-24T04:50:39.168Z,52.63
2019-01-24T04:53:09.659Z,55.63
2019-01-24T04:55:40.124Z,52.67
2019-01-24T04:58:10.175Z,57.87
2019-01-24T05:00:40.745Z,53.33
2019-01-24T05:03:10.896Z,51.47
2019-01-24T05:05:41.217Z,58.17
2019-01-24T05:08:11.387Z,48.30
2019-01-24T05:10:41.632Z,57.13
2019-01-24T05:13:11.812Z,49.93
2019-01-24T05:15:42.425Z,50.20
2019-01-24T05:18:12.626Z,52.40
2019-01-24T05:20:43.066Z,52.53
2019-01-24T05:23:14.421Z,55.70
2019-01-24T05:25:44.618Z,55.47
2019-01-24T05:28:14.726Z,48.70
2019-01-24T05:30:44.827Z,53.10
2019-01-24T05:33:14.970Z,49.00
2019-01-24T05:35:45.201Z,56.90
2019-01-24T05:38:15.833Z,55.37
2019-01-24T05:40:45.979Z,58.27
2019-01-24T05:43:16.066Z,50.03
2019-01-24T05:45:45.714Z,48.53
2019-01-24T05:48:16.139Z,51.13
2019-01-24T05:50:47.758Z,53.63
2019-01-24T05:53:19.181Z,52.47
2019-01-24T05:55:51.200Z,54.93
2019-01-24T05:58:22.029Z,54.83
2019-01-24T06:00:52.483Z,52.10
2019-01-24T06:03:22.093Z,51.03
2019-01-24T06:05:52.395Z,53.67
2019-01-24T06:08:23.512Z,56.23
2019-01-24T06:10:53.389Z,59.87
2019-01-24T06:13:23.418Z,57.83
2019-01-24T06:15:53.572Z,60.37
2019-01-24T06:18:24.195Z,54.47
2019-01-24T06:20:54.446Z,57.17
2019-01-24T06:23:26.464Z,57.43
2019-01-24T06:25:57.137Z,55.13
2019-01-24T06:28:27.628Z,58.60
2019-01-24T06:30:58.243Z,60.90
2019-01-24T06:33:29.314Z,54.80
2019-01-24T06:35:58.928Z,51.37
2019-01-24T06:38:29.086Z,58.43
2019-01-24T06:40:59.264Z,56.20
2019-01-24T06:43:30.704Z,59.80
2019-01-24T06:46:01.181Z,53.63
2019-01-24T06:48:31.349Z,59.60
2019-01-24T06:51:01.055Z,63.83
2019-01-24T06:53:33.075Z,59.07
2019-01-24T06:56:06.771Z,58.57
2019-01-24T06:58:38.215Z,67.03
2019-01-24T07:01:09.258Z,59.73
2019-01-24T07:03:39.382Z,55.83
2019-01-24T07:06:09.858Z,66.03
2019-01-24T07:08:41.084Z,59.87
2019-01-24T07:11:12.238Z,53.33
2019-01-24T07:13:41.899Z,55.60
2019-01-24T07:16:11.866Z,58.27
2019-01-24T07:18:42.064Z,53.40
2019-01-24T07:21:12.206Z,52.83
2019-01-24T07:23:42.631Z,51.70
2019-01-24T07:26:15.317Z,63.67
2019-01-24T07:28:46.314Z,52.17
2019-01-24T07:31:16.439Z,55.27
2019-01-24T07:33:45.953Z,55.50
2019-01-24T07:36:16.299Z,52.93
2019-01-24T07:38:46.512Z,54.77
2019-01-24T07:41:17.032Z,55.43
2019-01-24T07:43:47.397Z,60.13
2019-01-24T07:46:18.275Z,53.83
2019-01-24T07:48:48.779Z,48.90
2019-01-24T07:51:18.447Z,51.37
2019-01-24T07:53:48.586Z,53.27
2019-01-24T07:56:18.662Z,56.20
2019-01-24T07:58:50.060Z,54.37
2019-01-24T08:01:20.477Z,53.13
2019-01-24T08:03:50.845Z,53.07
2019-01-24T08:06:22.678Z,53.93
2019-01-24T08:08:56.230Z,56.53
2019-01-24T08:11:27.466Z,65.23
2019-01-24T08:13:58.703Z,48.77
2019-01-24T08:16:31.126Z,56.00
2019-01-24T08:19:01.332Z,56.27
2019-01-24T08:21:30.887Z,58.67
2019-01-24T08:24:01.128Z,66.93
2019-01-24T08:26:30.625Z,71.03
2019-01-24T08:29:00.749Z,63.10
2019-01-24T08:31:30.803Z,65.23
2019-01-24T08:34:01.023Z,77.33
2019-01-24T08:36:30.663Z,63.23
2019-01-24T08:39:00.900Z,74.40
2019-01-24T08:41:32.492Z,71.00
2019-01-24T08:44:03.074Z,74.07
2019-01-24T08:46:33.358Z,69.73
2019-01-24T08:49:03.705Z,67.20
2019-01-24T08:51:33.855Z,63.27
2019-01-24T08:54:04.075Z,70.60
2019-01-24T08:56:34.263Z,64.10
2019-01-24T08:59:03.821Z,59.30
2019-01-24T09:01:33.893Z,57.37
2019-01-24T09:04:05.463Z,61.97
2019-01-24T09:06:35.675Z,61.63
2019-01-24T09:09:08.923Z,63.27
2019-01-24T09:11:39.109Z,60.80
2019-01-24T09:14:09.068Z,52.63
2019-01-24T09:16:39.269Z,62.70
2019-01-24T09:19:09.598Z,56.97
2019-01-24T09:21:39.170Z,50.90
2019-01-24T09:24:09.151Z,54.33
2019-01-24T09:26:39.278Z,56.23
2019-01-24T09:29:09.683Z,43.10
2019-01-24T09:31:40.936Z,47.47
2019-01-24T09:34:10.608Z,48.83
2019-01-24T09:36:43.365Z,55.07
2019-01-24T09:39:13.408Z,53.37
2019-01-24T09:41:44.932Z,48.40
2019-01-24T09:44:16.180Z,55.70
2019-01-24T09:46:46.442Z,48.83
2019-01-24T09:49:15.924Z,54.30
2019-01-24T09:51:48.048Z,51.23
2019-01-24T09:54:17.997Z,58.90
2019-01-24T09:56:48.654Z,53.87
2019-01-24T09:59:18.842Z,47.27
2019-01-24T10:01:48.972Z,53.37
2019-01-24T10:04:19.190Z,52.97
2019-01-24T10:06:50.620Z,54.43
2019-01-24T10:09:20.858Z,48.13
2019-01-24T10:11:51.329Z,52.03
2019-01-24T10:14:21.612Z,45.90
2019-01-24T10:16:52.514Z,47.93
2019-01-24T10:19:22.346Z,45.30
2019-01-24T10:21:52.294Z,41.33
2019-01-24T10:24:22.148Z,41.30
2019-01-24T10:26:52.651Z,38.93
2019-01-24T10:29:22.727Z,43.00
2019-01-24T10:31:53.400Z,39.40
2019-01-24T10:34:23.738Z,44.57
2019-01-24T10:36:53.383Z,42.47
2019-01-24T10:39:23.437Z,40.87
2019-01-24T10:41:53.497Z,41.60
2019-01-24T10:44:23.710Z,40.80
2019-01-24T10:46:53.582Z,41.30
2019-01-24T10:49:23.363Z,40.27
2019-01-24T10:51:56.313Z,40.63
2019-01-24T10:54:26.484Z,39.97
2019-01-24T10:56:56.619Z,42.40
2019-01-24T10:59:26.844Z,38.40
2019-01-24T11:01:56.952Z,34.57
2019-01-24T11:04:27.039Z,37.50
2019-01-24T11:06:56.595Z,38.97
2019-01-24T11:09:27.156Z,44.77
2019-01-24T11:11:57.320Z,38.47
2019-01-24T11:14:27.608Z,37.33
2019-01-24T11:16:58.147Z,41.00
2019-01-24T11:19:28.403Z,33.87
2019-01-24T11:21:58.605Z,38.57
2019-01-24T11:24:28.643Z,33.27
2019-01-24T11:26:58.755Z,36.00
2019-01-24T11:29:29.965Z,33.87
2019-01-24T11:31:59.473Z,36.20
2019-01-24T11:34:29.441Z,36.80
2019-01-24T11:36:59.135Z,32.10
2019-01-24T11:39:29.577Z,34.60
2019-01-24T11:41:59.611Z,29.27
2019-01-24T11:44:32.359Z,35.77
2019-01-24T11:47:02.447Z,29.67
2019-01-24T11:49:32.142Z,34.03
2019-01-24T11:52:02.596Z,35.17
2019-01-24T11:54:32.774Z,30.87
2019-01-24T11:57:06.398Z,34.10
2019-01-24T11:59:36.544Z,31.63
2019-01-24T12:02:07.910Z,28.23
2019-01-24T12:04:38.168Z,29.53
2019-01-24T12:07:08.187Z,32.83
2019-01-24T12:09:38.351Z,27.87
2019-01-24T12:12:08.580Z,30.27
2019-01-24T12:14:38.123Z,26.90
2019-01-24T12:17:08.178Z,23.33
2019-01-24T12:19:37.778Z,27.20
2019-01-24T12:22:09.192Z,19.77
2019-01-24T12:24:38.733Z,22.33
2019-01-24T12:27:08.823Z,25.17
2019-01-24T12:29:38.639Z,25.13
2019-01-24T12:32:09.079Z,18.83
2019-01-24T12:34:38.852Z,23.10
2019-01-24T12:37:11.574Z,25.93
2019-01-24T12:39:41.625Z,23.10
2019-01-24T12:42:12.214Z,23.13
2019-01-24T12:44:42.393Z,25.00
2019-01-24T12:47:12.734Z,25.17
2019-01-24T12:49:43.371Z,29.03
2019-01-24T12:52:13.606Z,28.37
2019-01-24T12:54:44.112Z,25.23
2019-01-24T12:57:14.264Z,24.87
2019-01-24T12:59:44.368Z,27.03
2019-01-24T13:02:14.864Z,26.93
2019-01-24T13:04:44.758Z,29.07
2019-01-24T13:07:18.410Z,26.30
2019-01-24T13:09:46.330Z,27.87
2019-01-24T13:12:16.754Z,25.90
2019-01-24T13:14:46.971Z,26.67
2019-01-24T13:17:17.296Z,19.23
2019-01-24T13:19:48.501Z,29.03
2019-01-24T13:22:18.398Z,31.13
2019-01-24T13:24:49.395Z,31.73
2019-01-24T13:27:19.815Z,27.47
2019-01-24T13:29:52.662Z,27.63
2019-01-24T13:32:23.241Z,25.90
2019-01-24T13:34:53.784Z,22.83
2019-01-24T13:37:26.019Z,25.83
2019-01-24T13:39:55.782Z,26.00
2019-01-24T13:42:26.845Z,27.47
2019-01-24T13:44:56.746Z,27.63
2019-01-24T13:47:26.715Z,22.63
2019-01-24T13:49:58.736Z,27.60
2019-01-24T13:52:28.997Z,21.43
2019-01-24T13:55:00.050Z,27.40
2019-01-24T13:57:30.491Z,22.60
2019-01-24T14:00:00.719Z,26.70
2019-01-24T14:02:32.322Z,33.03
2019-01-24T14:05:02.390Z,27.60
2019-01-24T14:07:33.301Z,25.27
2019-01-24T14:10:04.742Z,21.97
2019-01-24T14:12:34.729Z,22.63
2019-01-24T14:15:06.019Z,25.13
2019-01-24T14:17:36.240Z,27.07
2019-01-24T14:20:06.822Z,21.27
2019-01-24T14:22:36.927Z,20.87
2019-01-24T14:25:09.499Z,24.63
2019-01-24T14:27:41.632Z,19.80
2019-01-24T14:30:22.745Z,24.27
2019-01-24T14:32:53.029Z,27.13
2019-01-24T14:35:23.793Z,28.90
2019-01-24T14:37:54.143Z,28.03
2019-01-24T14:40:25.802Z,25.30
2019-01-24T14:42:56.093Z,25.50
2019-01-24T14:45:27.342Z,24.37
2019-01-24T14:47:57.632Z,23.40
2019-01-24T14:50:27.983Z,19.57
2019-01-24T14:53:02.507Z,16.30
2019-01-24T14:55:32.978Z,19.97
2019-01-24T14:58:06.015Z,27.50
2019-01-24T15:00:39.009Z,24.70
2019-01-24T15:03:09.566Z,20.23
2019-01-24T15:05:40.001Z,25.87
2019-01-24T15:08:14.872Z,27.20
2019-01-24T15:10:46.722Z,27.27
2019-01-24T15:13:17.617Z,27.63
2019-01-24T15:15:47.711Z,29.30
2019-01-24T15:18:18.034Z,24.27
2019-01-24T15:20:49.359Z,26.70
2019-01-24T15:23:18.960Z,26.83
2019-01-24T15:25:51.404Z,23.63
2019-01-24T15:28:23.263Z,26.10
2019-01-24T15:30:52.821Z,28.77
2019-01-24T15:33:22.898Z,30.43
2019-01-24T15:35:53.627Z,26.43
2019-01-24T15:38:23.781Z,27.83
2019-01-24T15:40:54.335Z,23.97
2019-01-24T15:43:24.533Z,22.27
2019-01-24T15:45:55.530Z,21.73
2019-01-24T15:48:25.511Z,26.67
2019-01-24T15:50:55.818Z,23.97
2019-01-24T15:53:25.347Z,27.00
2019-01-24T15:55:55.324Z,23.10
2019-01-24T15:58:25.514Z,27.67
2019-01-24T16:00:55.626Z,23.73
2019-01-24T16:03:25.763Z,22.63
2019-01-24T16:05:56.495Z,22.97
2019-01-24T16:08:26.493Z,22.77
2019-01-24T16:10:57.114Z,19.67
2019-01-24T16:13:29.025Z,19.67
2019-01-24T16:15:59.204Z,22.93
2019-01-24T16:18:28.908Z,23.73
2019-01-24T16:20:58.999Z,34.57
2019-01-24T16:23:29.242Z,28.03
2019-01-24T16:25:59.753Z,26.87
2019-01-24T16:28:29.878Z,25.27
2019-01-24T16:31:01.591Z,24.57
2019-01-24T16:33:31.127Z,26.60
2019-01-24T16:36:01.554Z,25.23
2019-01-24T16:38:32.163Z,27.63
2019-01-24T16:41:04.656Z,23.57
2019-01-24T16:43:34.524Z,31.23
2019-01-24T16:46:04.872Z,26.00
2019-01-24T16:48:34.478Z,27.90
2019-01-24T16:51:04.740Z,26.67
2019-01-24T16:53:35.462Z,29.57
2019-01-24T16:56:05.219Z,25.73
2019-01-24T16:58:35.326Z,24.53
2019-01-24T17:01:17.264Z,20.47
2019-01-24T17:03:47.436Z,29.97
2019-01-24T17:06:17.407Z,26.40
2019-01-24T17:08:48.288Z,24.63
2019-01-24T17:11:18.393Z,29.27
2019-01-24T17:13:48.597Z,34.27
2019-01-24T17:16:18.955Z,26.17
2019-01-24T17:18:49.127Z,29.83
2019-01-24T17:21:19.329Z,24.17
2019-01-24T17:23:49.620Z,21.70
2019-01-24T17:26:19.505Z,22.63
2019-01-24T17:28:50.052Z,29.60
2019-01-24T17:31:20.809Z,30.30
2019-01-24T17:33:50.363Z,31.13
2019-01-24T17:36:20.420Z,24.07
2019-01-24T17:38:50.813Z,26.83
2019-01-24T17:41:21.116Z,27.67
2019-01-24T17:43:51.123Z,25.90
2019-01-24T17:46:22.029Z,25.83
2019-01-24T17:48:55.173Z,31.50
2019-01-24T17:51:25.100Z,40.00
2019-01-24T17:53:55.133Z,27.20
2019-01-24T17:56:25.688Z,20.97
2019-01-24T17:58:55.657Z,28.30
2019-01-24T18:01:25.400Z,25.87
2019-01-24T18:03:55.590Z,21.33
2019-01-24T18:06:25.949Z,17.50
2019-01-24T18:08:56.837Z,23.43
2019-01-24T18:11:27.219Z,16.47
2019-01-24T18:13:58.706Z,15.83
2019-01-24T18:16:28.812Z,25.37
2019-01-24T18:18:59.130Z,17.93
2019-01-24T18:21:34.761Z,24.40
2019-01-24T18:24:05.410Z,20.17
2019-01-24T18:26:35.712Z,23.03
2019-01-24T18:29:05.221Z,25.60
2019-01-24T18:31:36.054Z,23.10
2019-01-24T18:34:07.000Z,23.13
2019-01-24T18:36:37.454Z,22.23
2019-01-24T18:39:10.831Z,19.60
2019-01-24T18:41:41.261Z,21.70
2019-01-24T18:44:11.595Z,24.60
2019-01-24T18:46:44.462Z,21.90
2019-01-24T18:49:15.026Z,23.97
2019-01-24T18:51:47.035Z,25.23
2019-01-24T18:54:19.112Z,20.87
2019-01-24T18:56:49.548Z,23.03
2019-01-24T18:59:21.408Z,20.23
2019-01-24T19:01:51.740Z,24.07
2019-01-24T19:04:22.262Z,24.77
2019-01-24T19:06:53.404Z,24.70
2019-01-24T19:09:24.120Z,22.40
2019-01-24T19:11:53.745Z,24.87
2019-01-24T19:14:23.759Z,22.93
2019-01-24T19:16:53.870Z,23.80
2019-01-24T19:19:23.991Z,26.07
2019-01-24T19:21:55.920Z,25.67
2019-01-24T19:24:25.464Z,23.57
2019-01-24T19:26:55.313Z,30.87
2019-01-24T19:29:25.356Z,25.80
2019-01-24T19:31:56.266Z,26.33
2019-01-24T19:34:26.577Z,22.13
2019-01-24T19:36:58.349Z,28.37
2019-01-24T19:39:27.997Z,30.73
2019-01-24T19:42:00.531Z,24.80
2019-01-24T19:44:30.704Z,26.50
2019-01-24T19:47:01.123Z,24.90
2019-01-24T19:49:31.349Z,30.00
2019-01-24T19:52:01.579Z,20.07
2019-01-24T19:54:31.131Z,24.33
2019-01-24T19:57:01.232Z,23.00
2019-01-24T19:59:31.509Z,27.23
2019-01-24T20:02:01.655Z,31.03
2019-01-24T20:04:33.046Z,29.00
2019-01-24T20:07:03.346Z,20.23
2019-01-24T20:09:33.531Z,26.87
2019-01-24T20:12:03.760Z,24.87
2019-01-24T20:14:33.941Z,25.83
2019-01-24T20:17:04.413Z,24.07
2019-01-24T20:19:34.563Z,24.97
2019-01-24T20:22:04.871Z,25.23
2019-01-24T20:24:35.043Z,27.37
2019-01-24T20:27:05.048Z,20.47
2019-01-24T20:29:35.258Z,25.77
2019-01-24T20:32:05.398Z,28.33
2019-01-24T20:34:35.582Z,21.27
2019-01-24T20:37:05.745Z,28.70
2019-01-24T20:39:35.952Z,28.37
2019-01-24T20:42:06.128Z,25.77
2019-01-24T20:44:36.727Z,24.00
2019-01-24T20:47:06.927Z,24.40
2019-01-24T20:49:37.482Z,26.40
2019-01-24T20:52:07.816Z,24.73
2019-01-24T20:54:38.659Z,22.57
2019-01-24T20:57:08.854Z,24.80
2019-01-24T20:59:39.291Z,27.60
2019-01-24T21:02:09.499Z,21.47
2019-01-24T21:04:40.925Z,25.50
2019-01-24T21:07:11.197Z,22.57
2019-01-24T21:09:42.326Z,25.47
2019-01-24T21:12:12.582Z,23.47
2019-01-24T21:14:44.034Z,22.73
2019-01-24T21:17:16.501Z,22.00
2019-01-24T21:19:47.624Z,25.00
2019-01-24T21:22:17.188Z,21.27
2019-01-24T21:24:47.340Z,24.50
2019-01-24T21:27:16.949Z,21.30
2019-01-24T21:29:46.955Z,20.00
2019-01-24T21:32:17.141Z,21.07
2019-01-24T21:34:48.769Z,21.73
2019-01-24T21:37:19.905Z,18.57
2019-01-24T21:39:50.056Z,17.93
2019-01-24T21:42:20.551Z,22.87
2019-01-24T21:44:50.109Z,23.73
2019-01-24T21:47:20.118Z,24.93
2019-01-24T21:49:50.495Z,22.97
2019-01-24T21:52:21.851Z,22.50
2019-01-24T21:54:52.381Z,21.87
2019-01-24T21:57:22.756Z,23.60
2019-01-24T21:59:52.859Z,21.37
2019-01-24T22:02:23.409Z,21.00
2019-01-24T22:04:53.666Z,23.87
2019-01-24T22:07:24.074Z,21.63
2019-01-24T22:09:54.268Z,22.00
2019-01-24T22:12:24.808Z,23.73
2019-01-24T22:14:54.946Z,22.40
2019-01-24T22:17:25.507Z,25.63
2019-01-24T22:19:55.587Z,26.00
2019-01-24T22:22:27.429Z,23.67
2019-01-24T22:24:58.385Z,26.20
2019-01-24T22:27:29.592Z,24.37
2019-01-24T22:29:59.524Z,23.37
2019-01-24T22:32:29.554Z,27.63
2019-01-24T22:35:00.229Z,18.73
2019-01-24T22:37:30.512Z,20.57
2019-01-24T22:40:02.242Z,23.30
2019-01-24T22:42:32.408Z,27.40
2019-01-24T22:45:03.372Z,22.03
2019-01-24T22:47:33.496Z,23.17
2019-01-24T22:50:04.118Z,19.43
2019-01-24T22:52:34.799Z,22.10
2019-01-24T22:55:05.226Z,23.40
2019-01-24T22:57:37.372Z,24.57
2019-01-24T23:00:52.381Z,22.37
2019-01-24T23:03:34.584Z,21.57
2019-01-24T23:06:05.645Z,22.20
2019-01-24T23:08:37.690Z,23.17
2019-01-24T23:11:08.014Z,21.90
2019-01-24T23:13:40.390Z,20.80
2019-01-24T23:16:10.823Z,22.83
2019-01-24T23:18:41.324Z,20.57
2019-01-24T23:21:11.444Z,21.90
2019-01-24T23:23:42.162Z,15.67
2019-01-24T23:26:12.359Z,21.07
2019-01-24T23:28:42.899Z,22.43
2019-01-24T23:31:12.428Z,20.90
2019-01-24T23:33:42.784Z,18.50
2019-01-24T23:36:13.145Z,19.87
2019-01-24T23:38:43.668Z,18.10
2019-01-24T23:41:13.897Z,24.87
2019-01-24T23:43:44.181Z,21.43
2019-01-24T23:46:14.222Z,19.83
2019-01-24T23:48:44.657Z,23.83
2019-01-24T23:51:15.490Z,20.23
2019-01-24T23:53:48.125Z,19.17
2019-01-24T23:56:18.702Z,25.47
2019-01-24T23:58:49.143Z,22.47
